Airfield :
LOGIN :

Register | Disclaimer

   EN    FR    IT 

 










Legend :    VFR   Marginal VFR   IFR   Intensive IFR   Very Intensive IFR
Visi :
Ceiling :
>= 8 km
>= 3000ft
5 to 8 km
1000 to 3000 ft
1500m to 5 km
500 to 1000 ft
800 to 1500m
200 to 500 ft
< 800m
< 200 ft
Symbols :   Thunderstorms  Fog  Heavy snow  Heavy precipitations  Wind > 20 kt
SIGMETs :     Misc.  Thunderstorms  Icing  Turbulence  Mountain Waves  Volcanic Ashes






- Airport Elevation : 138 ft
- IATA code : BIO


LEBB - Bilbao

CURRENT METAR :
  • 080930Z 11006KT 9999 FEW030 11/09 Q1003 NOSIG

EXPIRED METARs :
  • 080900Z 10006KT 9999 FEW020 10/09 Q1003 NOSIG
  • 080830Z 12007KT 080V140 9999 FEW030 10/09 Q1003 NOSIG
  • 080800Z 10006KT 9999 FEW003 10/08 Q1004 NOSIG
  • 080730Z 10007KT 9000 FEW006 10/09 Q1004 NOSIG
  • 080700Z 08007KT 050V110 9000 NSC 09/09 Q1004 NOSIG

TAF TAF LEBB
Valid from the 08 at 06:00 until the 09 at 06:00 UTC


080500Z 0806/0906 11006KT 9999 FEW010 BKN045 TX11/0812Z TN07/0806Z
PROB40
TEMPO 0806/0809 3000 BR BKN005
PROB40
TEMPO 0809/0818 3000 RA BKN010
PROB30
TEMPO 0812/0818 1500 SHRA SCT025TCU
PROB40
TEMPO 0818/0824 18008KT
PROB40
TEMPO 0903/0906 BKN005 BKN010



MET'MAP, your aeronautical weather chart ! - Copyright ORBIFLY December 2007 - Disclaimer

ORBIFLY MET'MAP TEAM :

Programming & Development : Alexandra Zaïnal
Original concept : Baudouin d'Aumeries
Technical & hardware support : Manuel Goepfert
Assistance : Marc-Olivier Méhu




SOURCES & CREDITS :

   NOAA